createdAt,value
2023-04-13T00:00:37.692Z,98056.89
2023-04-13T00:03:04.770Z,98063.79
2023-04-13T00:05:33.892Z,98072.64
2023-04-13T00:08:02.915Z,98079.19
2023-04-13T00:10:36.651Z,98078.44
2023-04-13T00:13:04.479Z,98086.05
2023-04-13T00:15:31.423Z,98084.73
2023-04-13T00:18:00.498Z,98089.40
2023-04-13T00:20:28.370Z,98086.93
2023-04-13T00:22:55.581Z,98084.17
2023-04-13T00:25:23.147Z,98084.33
2023-04-13T00:27:52.532Z,98088.65
2023-04-13T00:30:20.760Z,98090.73
2023-04-13T00:32:51.464Z,98084.20
2023-04-13T00:35:19.426Z,98073.46
2023-04-13T00:37:49.254Z,98074.20
2023-04-13T00:40:18.530Z,98083.09
2023-04-13T00:42:48.005Z,98081.13
2023-04-13T00:45:15.419Z,98079.30
2023-04-13T00:47:49.035Z,98074.11
2023-04-13T00:50:18.801Z,98064.77
2023-04-13T00:52:46.602Z,98059.39
2023-04-13T00:55:14.491Z,98058.17
2023-04-13T00:57:42.573Z,98060.86
2023-04-13T01:00:10.254Z,98056.81
2023-04-13T01:02:43.754Z,98052.93
2023-04-13T01:05:14.717Z,98059.48
2023-04-13T01:08:02.139Z,98061.90
2023-04-13T01:10:37.283Z,98055.71
2023-04-13T01:13:21.100Z,98060.73
2023-04-13T01:16:03.346Z,98065.07
2023-04-13T01:18:34.917Z,98065.17
2023-04-13T01:21:05.074Z,98069.42
2023-04-13T01:23:50.811Z,98068.52
2023-04-13T01:26:17.409Z,98068.98
2023-04-13T01:28:47.467Z,98066.63
2023-04-13T01:31:14.995Z,98062.89
2023-04-13T01:33:42.009Z,98058.21
2023-04-13T01:36:10.186Z,98061.40
2023-04-13T01:38:38.155Z,98060.69
2023-04-13T01:41:08.101Z,98061.21
2023-04-13T01:43:38.377Z,98061.17
2023-04-13T01:46:07.089Z,98059.42
2023-04-13T01:48:54.432Z,98050.11
2023-04-13T01:51:34.923Z,98057.92
2023-04-13T01:54:15.658Z,98056.48
2023-04-13T01:56:46.230Z,98061.59
2023-04-13T01:59:13.171Z,98066.45
2023-04-13T02:01:40.559Z,98066.26
2023-04-13T02:04:13.280Z,98056.67
2023-04-13T02:06:46.017Z,98052.54
2023-04-13T02:09:12.948Z,98052.73
2023-04-13T02:11:39.601Z,98053.19
2023-04-13T02:14:18.245Z,98058.91
2023-04-13T02:16:48.318Z,98072.85
2023-04-13T02:19:15.011Z,98080.61
2023-04-13T02:21:41.584Z,98080.23
2023-04-13T02:24:11.823Z,98071.70
2023-04-13T02:26:40.093Z,98058.58
2023-04-13T02:29:07.292Z,98061.91
2023-04-13T02:31:44.592Z,98058.47
2023-04-13T02:34:12.301Z,98061.22
2023-04-13T02:36:39.886Z,98061.05
2023-04-13T02:39:08.488Z,98058.66
2023-04-13T02:41:38.588Z,98060.66
2023-04-13T02:44:05.710Z,98061.00
2023-04-13T02:46:41.285Z,98055.87
2023-04-13T02:49:14.581Z,98060.41
2023-04-13T02:51:49.367Z,98068.73
2023-04-13T02:54:16.668Z,98070.00
2023-04-13T02:56:47.009Z,98072.45
2023-04-13T02:59:15.919Z,98061.30
2023-04-13T03:01:45.188Z,98067.39
2023-04-13T03:04:13.434Z,98065.08
2023-04-13T03:06:43.676Z,98062.07
2023-04-13T03:09:11.443Z,98059.30
2023-04-13T03:11:46.955Z,98068.33
2023-04-13T03:14:20.758Z,98075.98
2023-04-13T03:16:48.595Z,98080.19
2023-04-13T03:19:21.371Z,98077.30
2023-04-13T03:21:49.503Z,98075.45
2023-04-13T03:24:18.766Z,98071.55
2023-04-13T03:26:45.840Z,98073.98
2023-04-13T03:29:15.799Z,98077.02
2023-04-13T03:31:45.359Z,98081.20
2023-04-13T03:34:12.650Z,98087.73
2023-04-13T03:36:40.020Z,98088.66
2023-04-13T03:39:13.181Z,98091.70
2023-04-13T03:41:40.051Z,98094.80
2023-04-13T03:44:08.153Z,98097.66
2023-04-13T03:46:36.910Z,98100.65
2023-04-13T03:49:09.117Z,98101.11
2023-04-13T03:51:41.394Z,98101.04
2023-04-13T03:54:08.895Z,98098.66
2023-04-13T03:56:36.062Z,98098.98
2023-04-13T03:59:04.472Z,98091.23
2023-04-13T04:01:31.768Z,98090.36
2023-04-13T04:04:00.432Z,98097.48
2023-04-13T04:06:28.610Z,98096.61
2023-04-13T04:09:16.394Z,98096.82
2023-04-13T04:11:47.121Z,98098.63
2023-04-13T04:14:17.524Z,98103.54
2023-04-13T04:16:55.430Z,98103.52
2023-04-13T04:19:23.662Z,98103.10
2023-04-13T04:21:52.335Z,98110.15
2023-04-13T04:24:27.106Z,98116.17
2023-04-13T04:26:58.752Z,98120.39
2023-04-13T04:29:33.599Z,98122.79
2023-04-13T04:32:05.010Z,98129.36
2023-04-13T04:34:32.508Z,98132.61
2023-04-13T04:37:03.289Z,98133.48
2023-04-13T04:39:34.739Z,98132.36
2023-04-13T04:42:10.362Z,98133.40
2023-04-13T04:44:39.397Z,98136.56
2023-04-13T04:47:09.915Z,98132.40
2023-04-13T04:49:50.966Z,98125.73
2023-04-13T04:52:18.026Z,98122.73
2023-04-13T04:54:45.384Z,98120.39
2023-04-13T04:57:16.487Z,98116.75
2023-04-13T04:59:44.469Z,98109.14
2023-04-13T05:02:12.430Z,98106.41
2023-04-13T05:04:39.484Z,98109.84
2023-04-13T05:07:07.098Z,98110.71
2023-04-13T05:09:38.415Z,98107.79
2023-04-13T05:12:06.936Z,98112.06
2023-04-13T05:14:34.580Z,98111.89
2023-04-13T05:17:01.708Z,98118.86
2023-04-13T05:19:33.889Z,98114.85
2023-04-13T05:22:06.644Z,98109.10
2023-04-13T05:24:38.475Z,98110.05
2023-04-13T05:27:09.302Z,98111.48
2023-04-13T05:29:36.524Z,98113.38
2023-04-13T05:32:03.702Z,98120.06
2023-04-13T05:34:33.108Z,98123.48
2023-04-13T05:37:14.184Z,98125.17
2023-04-13T05:39:42.847Z,98126.60
2023-04-13T05:42:09.679Z,98127.76
2023-04-13T05:44:46.742Z,98127.42
2023-04-13T05:47:14.319Z,98124.42
2023-04-13T05:49:42.525Z,98131.46
2023-04-13T05:52:10.038Z,98129.98
2023-04-13T05:54:42.554Z,98129.70
2023-04-13T05:57:11.584Z,98124.98
2023-04-13T05:59:43.981Z,98121.83
2023-04-13T06:02:11.131Z,98124.04
2023-04-13T06:04:38.425Z,98127.50
2023-04-13T06:07:06.361Z,98130.09
2023-04-13T06:09:33.716Z,98132.85
2023-04-13T06:12:02.028Z,98134.71
2023-04-13T06:14:31.998Z,98131.45
2023-04-13T06:17:00.365Z,98129.38
2023-04-13T06:19:31.284Z,98130.80
2023-04-13T06:21:59.171Z,98137.98
2023-04-13T06:24:26.908Z,98143.98
2023-04-13T06:26:53.872Z,98140.81
2023-04-13T06:29:20.940Z,98141.13
2023-04-13T06:31:57.206Z,98139.80
2023-04-13T06:34:24.599Z,98139.55
2023-04-13T06:36:52.225Z,98149.79
2023-04-13T06:39:19.575Z,98148.19
2023-04-13T06:41:53.310Z,98151.30
2023-04-13T06:44:42.278Z,98156.38
2023-04-13T06:47:09.228Z,98159.70
2023-04-13T06:49:36.525Z,98168.64
2023-04-13T06:52:04.292Z,98171.20
2023-04-13T06:54:31.090Z,98167.88
2023-04-13T06:57:04.243Z,98174.25
2023-04-13T06:59:32.720Z,98173.16
2023-04-13T07:02:00.154Z,98169.89
2023-04-13T07:04:29.637Z,98161.12
2023-04-13T07:06:58.825Z,98157.62
2023-04-13T07:09:26.976Z,98162.30
2023-04-13T07:12:04.271Z,98162.09
2023-04-13T07:14:38.412Z,98164.77
2023-04-13T07:17:05.559Z,98163.36
2023-04-13T07:19:44.535Z,98162.91
2023-04-13T07:22:13.091Z,98163.38
2023-04-13T07:24:42.372Z,98164.14
2023-04-13T07:27:13.982Z,98162.70
2023-04-13T07:29:41.195Z,98162.71
2023-04-13T07:32:11.345Z,98157.94
2023-04-13T07:34:38.857Z,98160.63
2023-04-13T07:37:05.961Z,98161.62
2023-04-13T07:39:32.893Z,98165.54
2023-04-13T07:42:01.201Z,98167.71
2023-04-13T07:44:56.092Z,98167.84
2023-04-13T07:47:23.816Z,98177.42
2023-04-13T07:49:53.621Z,98185.77
2023-04-13T07:52:21.943Z,98183.52
2023-04-13T07:54:49.805Z,98188.50
2023-04-13T07:57:20.919Z,98192.76
2023-04-13T07:59:51.180Z,98198.98
2023-04-13T08:02:20.105Z,98199.85
2023-04-13T08:04:48.813Z,98197.58
2023-04-13T08:07:22.425Z,98200.27
2023-04-13T08:09:51.935Z,98196.92
2023-04-13T08:12:18.880Z,98200.05
2023-04-13T08:14:47.933Z,98203.52
2023-04-13T08:17:17.978Z,98202.31
2023-04-13T08:19:45.779Z,98205.03
2023-04-13T08:22:15.457Z,98208.68
2023-04-13T08:24:45.281Z,98206.39
2023-04-13T08:27:12.068Z,98208.23
2023-04-13T08:29:43.075Z,98206.87
2023-04-13T08:32:11.396Z,98205.50
2023-04-13T08:34:39.040Z,98202.26
2023-04-13T08:37:06.339Z,98201.41
2023-04-13T08:39:42.765Z,98198.66
2023-04-13T08:42:10.657Z,98197.95
2023-04-13T08:44:39.540Z,98199.92
2023-04-13T08:47:16.566Z,98197.55
2023-04-13T08:49:44.199Z,98197.76
2023-04-13T08:52:16.968Z,98197.02
2023-04-13T08:54:47.053Z,98197.65
2023-04-13T08:57:21.942Z,98198.83
2023-04-13T08:59:53.813Z,98199.46
2023-04-13T09:02:25.651Z,98198.92
2023-04-13T09:04:59.275Z,98197.59
2023-04-13T09:07:29.595Z,98198.89
2023-04-13T09:10:00.168Z,98198.80
2023-04-13T09:12:28.339Z,98203.91
2023-04-13T09:14:56.719Z,98203.33
2023-04-13T09:17:29.974Z,98200.40
2023-04-13T09:20:12.556Z,98200.30
2023-04-13T09:22:40.668Z,98205.31
2023-04-13T09:25:18.623Z,98210.98
2023-04-13T09:27:52.637Z,98209.48
2023-04-13T09:30:24.099Z,98210.25
2023-04-13T09:33:08.057Z,98209.37
2023-04-13T09:35:34.935Z,98207.73
2023-04-13T09:38:02.132Z,98212.02
2023-04-13T09:40:29.421Z,98211.29
2023-04-13T09:43:01.465Z,98215.30
2023-04-13T09:45:35.885Z,98210.09
2023-04-13T09:48:03.788Z,98212.44
2023-04-13T09:50:36.358Z,98209.42
2023-04-13T09:53:04.436Z,98207.80
2023-04-13T09:55:32.186Z,98217.19
2023-04-13T09:58:19.126Z,98218.24
2023-04-13T10:00:49.651Z,98220.05
2023-04-13T10:03:19.301Z,98224.08
2023-04-13T10:05:58.728Z,98218.43
2023-04-13T10:10:59.102Z,98218.95
2023-04-13T10:13:29.275Z,98225.11
2023-04-13T10:16:16.640Z,98227.98
2023-04-13T10:18:57.149Z,98227.48
2023-04-13T10:21:24.841Z,98230.16
2023-04-13T10:23:52.163Z,98230.08
2023-04-13T10:26:30.112Z,98230.80
2023-04-13T10:28:59.179Z,98237.13
2023-04-13T10:31:43.033Z,98234.61
2023-04-13T10:34:10.182Z,98236.13
2023-04-13T10:36:37.910Z,98233.50
2023-04-13T10:39:04.780Z,98238.23
2023-04-13T10:41:31.678Z,98236.20
2023-04-13T10:44:06.512Z,98233.96
2023-04-13T10:46:34.074Z,98238.69
2023-04-13T10:49:01.926Z,98243.27
2023-04-13T10:51:44.004Z,98244.80
2023-04-13T10:54:12.495Z,98242.38
2023-04-13T10:56:40.873Z,98248.05
2023-04-13T10:59:08.236Z,98249.83
2023-04-13T11:01:36.031Z,98256.85
2023-04-13T11:04:05.938Z,98262.70
2023-04-13T11:06:38.534Z,98267.07
2023-04-13T11:09:06.442Z,98265.01
2023-04-13T11:11:35.851Z,98263.95
2023-04-13T11:14:04.407Z,98265.71
2023-04-13T11:16:43.396Z,98263.11
2023-04-13T11:19:10.582Z,98263.71
2023-04-13T11:21:37.900Z,98266.05
2023-04-13T11:24:04.907Z,98269.27
2023-04-13T11:26:36.960Z,98265.56
2023-04-13T11:29:16.922Z,98264.73
2023-04-13T11:31:43.689Z,98269.61
2023-04-13T11:34:10.846Z,98270.33
2023-04-13T11:36:39.237Z,98268.83
2023-04-13T11:39:10.738Z,98266.54
2023-04-13T11:41:42.404Z,98266.04
2023-04-13T11:44:11.683Z,98264.29
2023-04-13T11:46:38.447Z,98266.34
2023-04-13T11:49:05.926Z,98270.40
2023-04-13T11:51:32.702Z,98267.14
2023-04-13T11:54:00.449Z,98273.16
2023-04-13T11:56:27.104Z,98272.55
2023-04-13T11:58:54.199Z,98275.33
2023-04-13T12:01:26.376Z,98273.75
2023-04-13T12:04:15.088Z,98273.89
2023-04-13T12:06:45.425Z,98279.99
2023-04-13T12:09:16.765Z,98285.45
2023-04-13T12:11:50.119Z,98286.32
2023-04-13T12:14:47.666Z,98288.31
2023-04-13T12:17:34.796Z,98287.11
2023-04-13T12:20:01.147Z,98292.36
2023-04-13T12:22:50.996Z,98295.20
2023-04-13T12:25:24.218Z,98300.50
2023-04-13T12:27:52.465Z,98300.56
2023-04-13T12:30:22.010Z,98298.27
2023-04-13T12:32:53.124Z,98301.91
2023-04-13T12:35:20.010Z,98307.23
2023-04-13T12:37:47.344Z,98309.48
2023-04-13T12:40:15.413Z,98306.77
2023-04-13T12:42:43.091Z,98305.95
2023-04-13T12:45:10.534Z,98306.89
2023-04-13T12:47:37.492Z,98309.66
2023-04-13T12:50:09.220Z,98307.48
2023-04-13T12:52:40.680Z,98308.05
2023-04-13T12:55:08.250Z,98308.45
2023-04-13T12:57:39.346Z,98306.27
2023-04-13T13:00:10.469Z,98306.60
2023-04-13T13:02:37.936Z,98312.14
2023-04-13T13:05:05.931Z,98313.10
2023-04-13T13:07:32.973Z,98314.52
2023-04-13T13:10:14.957Z,98312.61
2023-04-13T13:12:49.159Z,98313.33
2023-04-13T13:15:16.516Z,98313.41
2023-04-13T13:17:44.222Z,98312.66
2023-04-13T13:20:11.542Z,98320.00
2023-04-13T13:22:38.979Z,98318.05
2023-04-13T13:25:07.874Z,98322.61
2023-04-13T13:30:09.465Z,98317.30
2023-04-13T13:32:38.060Z,98315.52
2023-04-13T13:35:07.792Z,98318.55
2023-04-13T13:37:34.730Z,98323.98
2023-04-13T13:40:12.265Z,98321.36
2023-04-13T13:42:50.786Z,98319.55
2023-04-13T13:45:20.855Z,98318.01
2023-04-13T13:47:56.934Z,98316.39
2023-04-13T13:50:45.509Z,98319.90
2023-04-13T13:53:13.664Z,98319.52
2023-04-13T13:55:41.597Z,98318.84
2023-04-13T13:58:14.467Z,98321.52
2023-04-13T14:00:41.710Z,98316.80
2023-04-13T14:03:08.611Z,98315.58
2023-04-13T14:05:36.848Z,98315.69
2023-04-13T14:08:04.661Z,98316.95
2023-04-13T14:10:32.124Z,98320.23
2023-04-13T14:12:59.035Z,98322.92
2023-04-13T14:15:28.599Z,98321.45
2023-04-13T14:20:30.609Z,98326.90
2023-04-13T14:22:57.196Z,98330.67
2023-04-13T14:25:24.202Z,98330.48
2023-04-13T14:27:52.518Z,98335.76
2023-04-13T14:30:21.443Z,98334.61
2023-04-13T14:32:51.465Z,98336.47
2023-04-13T14:35:19.550Z,98330.98
2023-04-13T14:37:46.935Z,98333.08
2023-04-13T14:40:16.354Z,98334.39
2023-04-13T14:42:43.713Z,98335.60
2023-04-13T14:45:11.819Z,98336.38
2023-04-13T14:47:41.227Z,98336.19
2023-04-13T14:50:09.289Z,98339.27
2023-04-13T14:52:35.991Z,98336.19
2023-04-13T14:55:03.671Z,98340.09
2023-04-13T14:57:31.855Z,98337.30
2023-04-13T14:59:58.418Z,98339.52
2023-04-13T15:02:27.749Z,98339.20
2023-04-13T15:04:55.083Z,98342.34
2023-04-13T15:07:28.425Z,98350.76
2023-04-13T15:09:55.226Z,98350.33
2023-04-13T15:12:26.984Z,98356.08
2023-04-13T15:14:54.641Z,98354.71
2023-04-13T15:17:21.570Z,98353.02
2023-04-13T15:19:48.469Z,98354.02
2023-04-13T15:22:15.834Z,98353.30
2023-04-13T15:24:43.124Z,98353.40
2023-04-13T15:27:10.415Z,98356.67
2023-04-13T15:29:38.150Z,98361.52
2023-04-13T15:32:05.262Z,98356.66
2023-04-13T15:34:32.030Z,98365.50
2023-04-13T15:36:58.795Z,98365.97
2023-04-13T15:39:27.409Z,98369.48
2023-04-13T15:41:59.897Z,98374.52
2023-04-13T15:44:26.929Z,98374.10
2023-04-13T15:46:53.550Z,98374.88
2023-04-13T15:49:20.583Z,98382.41
2023-04-13T15:51:47.160Z,98381.39
2023-04-13T15:54:14.372Z,98382.48
2023-04-13T15:56:43.383Z,98389.38
2023-04-13T15:59:10.347Z,98393.25
2023-04-13T16:01:46.888Z,98390.60
2023-04-13T16:04:14.045Z,98397.83
2023-04-13T16:06:42.032Z,98395.43
2023-04-13T16:09:10.220Z,98398.99
2023-04-13T16:11:39.843Z,98393.73
2023-04-13T16:14:06.540Z,98394.86
2023-04-13T16:16:48.792Z,98393.03
2023-04-13T16:19:18.400Z,98397.88
2023-04-13T16:21:45.511Z,98405.97
2023-04-13T16:24:12.304Z,98407.19
2023-04-13T16:26:39.342Z,98404.45
2023-04-13T16:29:07.448Z,98407.56
2023-04-13T16:31:34.320Z,98407.30
2023-04-13T16:34:06.816Z,98407.58
2023-04-13T16:36:38.614Z,98407.56
2023-04-13T16:39:07.217Z,98412.67
2023-04-13T16:41:34.221Z,98414.14
2023-04-13T16:44:01.771Z,98414.25
2023-04-13T16:46:28.949Z,98414.52
2023-04-13T16:48:55.913Z,98412.38
2023-04-13T16:51:25.851Z,98414.39
2023-04-13T16:53:53.480Z,98412.09
2023-04-13T16:56:21.677Z,98413.04
2023-04-13T16:58:49.535Z,98415.85
2023-04-13T17:01:16.231Z,98420.05
2023-04-13T17:03:44.038Z,98426.12
2023-04-13T17:06:11.128Z,98431.26
2023-04-13T17:08:37.963Z,98434.45
2023-04-13T17:11:07.351Z,98437.42
2023-04-13T17:13:36.151Z,98441.09
2023-04-13T17:16:07.541Z,98447.45
2023-04-13T17:18:38.120Z,98452.17
2023-04-13T17:21:05.062Z,98454.88
2023-04-13T17:23:32.233Z,98456.70
2023-04-13T17:26:02.989Z,98453.96
2023-04-13T17:28:30.572Z,98459.52
2023-04-13T17:30:57.200Z,98462.52
2023-04-13T17:33:27.463Z,98464.92
2023-04-13T17:35:54.767Z,98466.98
2023-04-13T17:38:21.627Z,98466.08
2023-04-13T17:40:50.573Z,98465.35
2023-04-13T17:43:19.102Z,98469.32
2023-04-13T17:45:45.890Z,98471.48
2023-04-13T17:48:16.540Z,98471.84
2023-04-13T17:50:43.623Z,98468.72
2023-04-13T17:53:10.696Z,98473.09
2023-04-13T17:55:40.787Z,98473.50
2023-04-13T17:58:10.097Z,98475.34
2023-04-13T18:00:36.774Z,98472.58
2023-04-13T18:03:05.719Z,98478.29
2023-04-13T18:05:34.655Z,98479.63
2023-04-13T18:08:01.615Z,98479.36
2023-04-13T18:10:28.239Z,98479.20
2023-04-13T18:12:57.774Z,98483.74
2023-04-13T18:15:25.231Z,98485.40
2023-04-13T18:17:53.917Z,98490.00
2023-04-13T18:20:24.273Z,98486.87
2023-04-13T18:22:51.000Z,98486.59
2023-04-13T18:25:18.278Z,98484.05
2023-04-13T18:27:45.201Z,98487.79
2023-04-13T18:30:13.477Z,98487.09
2023-04-13T18:32:41.030Z,98486.02
2023-04-13T18:35:08.191Z,98488.95
2023-04-13T18:37:38.688Z,98486.26
2023-04-13T18:40:06.768Z,98485.27
2023-04-13T18:42:33.492Z,98488.53
2023-04-13T18:45:01.443Z,98486.11
2023-04-13T18:47:28.348Z,98487.83
2023-04-13T18:49:56.928Z,98487.27
2023-04-13T18:52:25.566Z,98486.34
2023-04-13T18:54:52.438Z,98483.79
2023-04-13T18:57:19.112Z,98481.45
2023-04-13T18:59:47.160Z,98481.45
2023-04-13T19:02:14.722Z,98480.02
2023-04-13T19:04:41.519Z,98478.45
2023-04-13T19:07:13.221Z,98480.83
2023-04-13T19:09:43.510Z,98479.28
2023-04-13T19:12:10.276Z,98481.20
2023-04-13T19:14:40.807Z,98483.96
2023-04-13T19:17:09.505Z,98490.04
2023-04-13T19:19:38.247Z,98494.33
2023-04-13T19:22:05.430Z,98494.55
2023-04-13T19:24:37.471Z,98494.30
2023-04-13T19:27:04.285Z,98498.70
2023-04-13T19:29:32.903Z,98496.77
2023-04-13T19:31:59.716Z,98499.70
2023-04-13T19:34:26.875Z,98497.95
2023-04-13T19:36:53.556Z,98498.35
2023-04-13T19:39:22.388Z,98501.52
2023-04-13T19:41:49.260Z,98502.19
2023-04-13T19:44:16.266Z,98500.86
2023-04-13T19:46:45.937Z,98502.77
2023-04-13T19:49:13.008Z,98504.11
2023-04-13T19:51:39.877Z,98506.50
2023-04-13T19:54:08.314Z,98502.98
2023-04-13T19:56:35.851Z,98507.38
2023-04-13T19:59:03.492Z,98506.78
2023-04-13T20:01:32.457Z,98507.66
2023-04-13T20:04:01.478Z,98509.57
2023-04-13T20:06:30.983Z,98512.86
2023-04-13T20:09:11.281Z,98513.93
2023-04-13T20:11:40.535Z,98511.40
2023-04-13T20:14:08.740Z,98514.05
2023-04-13T20:16:35.581Z,98516.11
2023-04-13T20:19:02.252Z,98516.25
2023-04-13T20:21:30.253Z,98518.23
2023-04-13T20:23:57.631Z,98514.98
2023-04-13T20:26:27.903Z,98513.67
2023-04-13T20:28:58.936Z,98517.34
2023-04-13T20:31:25.798Z,98514.63
2023-04-13T20:33:52.776Z,98516.79
2023-04-13T20:36:24.359Z,98518.20
2023-04-13T20:38:53.744Z,98516.65
2023-04-13T20:41:21.265Z,98521.14
2023-04-13T20:43:49.867Z,98521.24
2023-04-13T20:46:17.102Z,98521.94
2023-04-13T20:51:15.236Z,98516.17
2023-04-13T20:53:42.451Z,98512.44
2023-04-13T20:56:12.166Z,98512.64
2023-04-13T20:58:40.282Z,98514.83
2023-04-13T21:01:07.105Z,98515.25
2023-04-13T21:03:35.943Z,98512.92
2023-04-13T21:06:03.432Z,98516.91
2023-04-13T21:08:30.972Z,98518.88
2023-04-13T21:10:58.091Z,98517.71
2023-04-13T21:13:27.355Z,98522.95
2023-04-13T21:15:54.014Z,98518.77
2023-04-13T21:18:21.568Z,98519.89
2023-04-13T21:20:48.938Z,98520.58
2023-04-13T21:23:15.821Z,98520.45
2023-04-13T21:25:43.882Z,98524.71
2023-04-13T21:28:10.979Z,98522.48
2023-04-13T21:30:37.871Z,98524.22
2023-04-13T21:33:05.278Z,98526.35
2023-04-13T21:35:32.311Z,98529.55
2023-04-13T21:37:58.999Z,98529.64
2023-04-13T21:40:25.862Z,98526.00
2023-04-13T21:42:52.534Z,98528.32
2023-04-13T21:45:19.597Z,98526.05
2023-04-13T21:47:47.203Z,98527.48
2023-04-13T21:50:14.705Z,98528.73
2023-04-13T21:52:43.944Z,98523.77
2023-04-13T21:55:16.990Z,98524.66
2023-04-13T21:57:44.337Z,98522.55
2023-04-13T22:00:12.920Z,98522.81
2023-04-13T22:02:41.163Z,98523.86
2023-04-13T22:05:09.981Z,98520.29
2023-04-13T22:07:42.815Z,98520.61
2023-04-13T22:10:11.163Z,98517.73
2023-04-13T22:12:38.235Z,98516.75
2023-04-13T22:15:07.026Z,98516.85
2023-04-13T22:17:35.608Z,98520.39
2023-04-13T22:20:04.061Z,98522.01
2023-04-13T22:22:31.325Z,98523.69
2023-04-13T22:24:59.333Z,98522.20
2023-04-13T22:27:26.778Z,98518.42
2023-04-13T22:29:54.161Z,98515.20
2023-04-13T22:32:21.543Z,98522.35
2023-04-13T22:34:48.777Z,98524.44
2023-04-13T22:37:17.425Z,98521.95
2023-04-13T22:39:46.464Z,98521.08
2023-04-13T22:42:13.095Z,98519.06
2023-04-13T22:44:39.713Z,98519.36
2023-04-13T22:47:07.034Z,98527.14
2023-04-13T22:49:33.724Z,98524.21
2023-04-13T22:52:01.408Z,98523.20
2023-04-13T22:54:28.368Z,98524.98
2023-04-13T22:56:54.977Z,98526.27
2023-04-13T22:59:21.869Z,98527.98
2023-04-13T23:01:48.837Z,98525.71
2023-04-13T23:04:16.329Z,98527.30
2023-04-13T23:06:43.231Z,98533.42
2023-04-13T23:09:14.241Z,98533.63
2023-04-13T23:11:41.152Z,98529.64
2023-04-13T23:14:08.176Z,98535.52
2023-04-13T23:16:35.403Z,98534.80
2023-04-13T23:19:03.460Z,98533.78
2023-04-13T23:21:30.692Z,98539.58
2023-04-13T23:24:04.314Z,98536.90
2023-04-13T23:26:33.259Z,98537.29
2023-04-13T23:29:00.287Z,98539.09
2023-04-13T23:31:28.793Z,98537.23
2023-04-13T23:33:55.555Z,98540.98
2023-04-13T23:36:22.178Z,98544.15
2023-04-13T23:38:49.555Z,98544.19
2023-04-13T23:41:16.948Z,98540.14
2023-04-13T23:43:43.532Z,98537.56
2023-04-13T23:46:10.272Z,98542.66
2023-04-13T23:48:37.386Z,98545.30
2023-04-13T23:51:03.990Z,98545.16
2023-04-13T23:53:30.608Z,98548.69
2023-04-13T23:55:57.175Z,98545.23
2023-04-13T23:58:24.996Z,98548.12
